createdAt,value
2024-02-29T00:00:53.953Z,14.50
2024-02-29T00:03:23.808Z,17.20
2024-02-29T00:05:55.182Z,14.90
2024-02-29T00:08:24.992Z,14.80
2024-02-29T00:10:54.656Z,13.70
2024-02-29T00:13:27.482Z,13.50
2024-02-29T00:15:57.147Z,15.00
2024-02-29T00:18:26.905Z,13.40
2024-02-29T00:20:56.576Z,15.20
2024-02-29T00:23:26.356Z,14.00
2024-02-29T00:25:56.070Z,13.50
2024-02-29T00:28:25.788Z,15.80
2024-02-29T00:30:55.529Z,15.10
2024-02-29T00:33:25.388Z,17.70
2024-02-29T00:36:05.068Z,15.60
2024-02-29T00:38:40.087Z,17.00
2024-02-29T00:41:09.838Z,15.50
2024-02-29T00:43:41.792Z,14.60
2024-02-29T00:46:14.148Z,14.50
2024-02-29T00:48:43.871Z,14.90
2024-02-29T00:51:13.610Z,14.10
2024-02-29T00:53:43.260Z,14.00
2024-02-29T00:56:15.545Z,16.00
2024-02-29T00:58:45.252Z,15.20
2024-02-29T01:01:15.198Z,18.50
2024-02-29T01:03:45.043Z,15.60
2024-02-29T01:06:17.352Z,15.40
2024-02-29T01:08:47.184Z,15.70
2024-02-29T01:11:16.934Z,15.20
2024-02-29T01:13:46.721Z,15.00
2024-02-29T01:16:19.614Z,15.40
2024-02-29T01:18:49.457Z,15.30
2024-02-29T01:21:19.145Z,18.60
2024-02-29T01:23:48.972Z,15.20
2024-02-29T01:26:18.747Z,16.20
2024-02-29T01:28:48.720Z,17.20
2024-02-29T01:31:18.502Z,16.50
2024-02-29T01:33:48.392Z,15.80
2024-02-29T01:36:18.138Z,13.60
2024-02-29T01:38:47.874Z,15.10
2024-02-29T01:41:18.843Z,15.00
2024-02-29T01:43:54.925Z,17.00
2024-02-29T01:46:26.004Z,15.80
2024-02-29T01:48:57.525Z,15.70
2024-02-29T01:51:27.889Z,15.40
2024-02-29T01:53:59.790Z,15.20
2024-02-29T01:56:29.887Z,15.80
2024-02-29T01:59:03.227Z,16.90
2024-02-29T02:01:33.395Z,13.80
2024-02-29T02:04:03.445Z,15.10
2024-02-29T02:06:33.643Z,15.30
2024-02-29T02:09:03.558Z,16.50
2024-02-29T02:11:33.233Z,13.40
2024-02-29T02:14:05.409Z,12.60
2024-02-29T02:16:37.288Z,12.70
2024-02-29T02:19:12.298Z,14.40
2024-02-29T02:21:43.289Z,14.50
2024-02-29T02:24:13.120Z,17.60
2024-02-29T02:26:45.281Z,14.70
2024-02-29T02:29:17.558Z,14.10
2024-02-29T02:31:47.370Z,15.80
2024-02-29T02:34:17.116Z,13.40
2024-02-29T02:36:46.833Z,14.80
2024-02-29T02:39:16.683Z,12.80
2024-02-29T02:41:49.414Z,13.20
2024-02-29T02:44:19.178Z,12.30
2024-02-29T02:46:48.973Z,14.80
2024-02-29T02:49:18.858Z,15.90
2024-02-29T02:51:50.953Z,14.70
2024-02-29T02:54:20.810Z,15.40
2024-02-29T02:56:50.518Z,15.40
2024-02-29T02:59:20.393Z,12.90
2024-02-29T03:01:50.499Z,12.30
2024-02-29T03:04:20.593Z,11.60
2024-02-29T03:06:50.442Z,12.70
2024-02-29T03:09:22.553Z,12.90
2024-02-29T03:11:52.738Z,12.10
2024-02-29T03:14:22.523Z,12.60
2024-02-29T03:16:54.698Z,12.90
2024-02-29T03:19:24.497Z,13.70
2024-02-29T03:21:54.230Z,12.20
2024-02-29T03:24:24.011Z,13.50
2024-02-29T03:26:53.733Z,12.90
2024-02-29T03:29:23.461Z,11.70
2024-02-29T03:31:53.198Z,12.90
2024-02-29T03:34:22.924Z,9.70
2024-02-29T03:36:52.652Z,10.10
2024-02-29T03:39:22.410Z,12.50
2024-02-29T03:41:52.017Z,11.90
2024-02-29T03:44:21.825Z,9.70
2024-02-29T03:46:51.674Z,9.90
2024-02-29T03:49:21.534Z,10.30
2024-02-29T03:51:51.958Z,10.60
2024-02-29T03:54:24.296Z,10.40
2024-02-29T03:56:54.036Z,12.60
2024-02-29T03:59:24.308Z,10.90
2024-02-29T04:01:54.328Z,11.40
2024-02-29T04:04:24.564Z,10.60
2024-02-29T04:06:58.136Z,9.30
2024-02-29T04:09:27.966Z,10.20
2024-02-29T04:11:57.725Z,9.80
2024-02-29T04:14:29.737Z,10.20
2024-02-29T04:16:59.396Z,12.90
2024-02-29T04:19:29.074Z,10.70
2024-02-29T04:21:58.763Z,11.60
2024-02-29T04:24:28.491Z,12.50
2024-02-29T04:26:58.208Z,11.80
2024-02-29T04:29:27.910Z,11.00
2024-02-29T04:31:57.607Z,10.10
2024-02-29T04:34:27.373Z,9.70
2024-02-29T04:36:57.131Z,10.70
2024-02-29T04:39:26.999Z,9.50
2024-02-29T04:41:56.881Z,10.60
2024-02-29T04:44:26.667Z,11.00
2024-02-29T04:46:58.726Z,10.30
2024-02-29T04:49:28.492Z,11.10
2024-02-29T04:51:58.319Z,11.10
2024-02-29T04:54:28.033Z,10.60
2024-02-29T04:56:57.743Z,11.20
2024-02-29T04:59:27.579Z,10.70
2024-02-29T05:01:57.297Z,10.10
2024-02-29T05:04:27.095Z,10.20
2024-02-29T05:06:57.497Z,10.90
2024-02-29T05:09:27.317Z,11.40
2024-02-29T05:11:56.980Z,11.60
2024-02-29T05:14:29.686Z,11.10
2024-02-29T05:16:59.361Z,10.40
2024-02-29T05:19:29.158Z,10.60
2024-02-29T05:21:58.965Z,9.60
2024-02-29T05:24:28.774Z,10.20
2024-02-29T05:26:58.486Z,10.30
2024-02-29T05:29:31.170Z,8.90
2024-02-29T05:32:01.840Z,9.90
2024-02-29T05:34:33.793Z,11.80
2024-02-29T05:37:05.705Z,8.50
2024-02-29T05:39:36.298Z,11.10
2024-02-29T05:42:06.573Z,9.40
2024-02-29T05:44:36.614Z,10.70
2024-02-29T05:47:06.626Z,9.90
2024-02-29T05:49:36.810Z,9.00
2024-02-29T05:52:07.519Z,10.40
2024-02-29T05:54:39.475Z,8.40
2024-02-29T05:57:09.244Z,11.10
2024-02-29T05:59:38.947Z,10.10
2024-02-29T06:02:11.323Z,9.80
2024-02-29T06:04:43.322Z,10.50
2024-02-29T06:07:13.112Z,9.80
2024-02-29T06:09:43.798Z,9.20
2024-02-29T06:12:13.564Z,9.80
2024-02-29T06:14:43.336Z,10.20
2024-02-29T06:17:13.073Z,8.50
2024-02-29T06:19:42.875Z,10.90
2024-02-29T06:22:12.677Z,11.70
2024-02-29T06:24:42.361Z,11.90
2024-02-29T06:27:12.076Z,14.10
2024-02-29T06:29:41.710Z,11.20
2024-02-29T06:32:11.509Z,10.80
2024-02-29T06:34:41.218Z,11.30
2024-02-29T06:37:12.890Z,9.10
2024-02-29T06:39:42.736Z,10.60
2024-02-29T06:42:12.521Z,11.90
2024-02-29T06:44:42.339Z,10.10
2024-02-29T06:47:12.080Z,8.90
2024-02-29T06:49:41.966Z,9.40
2024-02-29T06:52:11.754Z,8.30
2024-02-29T06:54:43.948Z,10.90
2024-02-29T06:57:14.618Z,11.00
2024-02-29T06:59:48.744Z,10.10
2024-02-29T07:02:19.655Z,8.70
2024-02-29T07:04:49.434Z,12.80
2024-02-29T07:07:20.432Z,11.50
2024-02-29T07:09:54.233Z,10.10
2024-02-29T07:12:24.028Z,10.40
2024-02-29T07:14:53.867Z,11.00
2024-02-29T07:17:25.923Z,9.50
2024-02-29T07:19:55.562Z,9.00
2024-02-29T07:22:25.330Z,10.20
2024-02-29T07:24:55.093Z,9.10
2024-02-29T07:27:24.924Z,10.70
2024-02-29T07:29:54.679Z,9.20
2024-02-29T07:32:24.417Z,8.50
2024-02-29T07:34:54.610Z,11.60
2024-02-29T07:37:24.458Z,7.80
2024-02-29T07:39:54.165Z,7.40
2024-02-29T07:42:23.897Z,9.00
2024-02-29T07:44:56.109Z,8.00
2024-02-29T07:47:25.887Z,9.50
2024-02-29T07:49:55.704Z,13.10
2024-02-29T07:52:25.509Z,11.70
2024-02-29T07:54:55.318Z,16.10
2024-02-29T07:57:25.896Z,10.30
2024-02-29T07:59:55.655Z,9.00
2024-02-29T08:02:25.487Z,9.40
2024-02-29T08:04:55.968Z,10.40
2024-02-29T08:07:25.739Z,11.20
2024-02-29T08:09:55.520Z,7.80
2024-02-29T08:12:25.274Z,9.20
2024-02-29T08:14:55.019Z,10.60
2024-02-29T08:17:28.368Z,8.40
2024-02-29T08:19:58.180Z,10.80
2024-02-29T08:22:27.930Z,9.40
2024-02-29T08:24:58.371Z,11.90
2024-02-29T08:27:30.642Z,9.40
2024-02-29T08:30:00.390Z,11.40
2024-02-29T08:32:30.244Z,8.60
2024-02-29T08:35:00.240Z,8.40
2024-02-29T08:37:30.082Z,8.50
2024-02-29T08:40:06.256Z,7.50
2024-02-29T08:42:36.225Z,8.80
2024-02-29T08:45:10.536Z,10.00
2024-02-29T08:47:42.843Z,9.00
2024-02-29T08:50:13.091Z,12.60
2024-02-29T08:52:43.419Z,11.00
2024-02-29T08:55:13.748Z,7.00
2024-02-29T08:57:43.659Z,8.10
2024-02-29T09:00:17.545Z,7.10
2024-02-29T09:02:47.375Z,8.40
2024-02-29T09:05:17.537Z,7.30
2024-02-29T09:07:47.268Z,9.10
2024-02-29T09:10:17.540Z,9.10
2024-02-29T09:12:47.957Z,9.60
2024-02-29T09:15:18.305Z,9.60
2024-02-29T09:17:48.415Z,7.40
2024-02-29T09:20:18.237Z,7.30
2024-02-29T09:22:50.346Z,8.10
2024-02-29T09:25:20.424Z,7.40
2024-02-29T09:27:51.112Z,7.20
2024-02-29T09:30:20.927Z,8.30
2024-02-29T09:32:53.635Z,7.40
2024-02-29T09:35:23.688Z,8.60
2024-02-29T09:37:54.076Z,8.30
2024-02-29T09:40:24.176Z,7.70
2024-02-29T09:42:54.298Z,10.30
2024-02-29T09:45:26.039Z,9.80
2024-02-29T09:47:55.905Z,8.70
2024-02-29T09:50:25.803Z,8.60
2024-02-29T09:52:57.012Z,8.90
2024-02-29T09:55:29.200Z,7.70
2024-02-29T09:58:01.150Z,9.60
2024-02-29T10:00:31.918Z,7.90
2024-02-29T10:03:03.722Z,9.20
2024-02-29T10:05:35.637Z,7.50
2024-02-29T10:08:07.113Z,9.50
2024-02-29T10:10:37.922Z,6.70
2024-02-29T10:13:08.092Z,8.30
2024-02-29T10:15:38.096Z,10.70
2024-02-29T10:18:08.745Z,10.10
2024-02-29T10:20:38.888Z,9.30
2024-02-29T10:23:16.170Z,9.20
2024-02-29T10:25:46.021Z,8.70
2024-02-29T10:28:16.025Z,9.60
2024-02-29T10:30:57.478Z,8.10
2024-02-29T10:33:27.554Z,9.30
2024-02-29T10:36:00.351Z,12.40
2024-02-29T10:38:32.380Z,9.40
2024-02-29T10:41:02.582Z,8.00
2024-02-29T10:43:34.199Z,8.20
2024-02-29T10:46:08.357Z,9.00
2024-02-29T10:48:48.709Z,9.90
2024-02-29T10:51:27.319Z,8.20
2024-02-29T10:54:10.316Z,8.50
2024-02-29T10:56:43.196Z,8.70
2024-02-29T10:59:17.298Z,7.20
2024-02-29T11:01:48.082Z,6.40
2024-02-29T11:04:20.526Z,8.50
2024-02-29T11:06:51.325Z,13.50
2024-02-29T11:09:27.419Z,9.80
2024-02-29T11:12:10.213Z,8.90
2024-02-29T11:14:43.786Z,8.60
2024-02-29T11:17:18.157Z,10.20
2024-02-29T11:19:59.145Z,7.10
2024-02-29T11:22:36.050Z,7.50
2024-02-29T11:25:11.980Z,7.00
2024-02-29T11:27:51.740Z,6.80
2024-02-29T11:30:24.408Z,7.60
2024-02-29T11:32:54.578Z,7.10
2024-02-29T11:35:26.559Z,7.50
2024-02-29T11:38:01.403Z,7.30
2024-02-29T11:40:35.307Z,8.60
2024-02-29T11:43:08.682Z,6.50
2024-02-29T11:45:38.963Z,5.00
2024-02-29T11:48:09.006Z,6.40
2024-02-29T11:50:39.973Z,10.70
2024-02-29T11:53:10.087Z,10.00
2024-02-29T11:55:39.942Z,7.80
2024-02-29T11:58:10.231Z,6.90
2024-02-29T12:00:40.062Z,5.60
2024-02-29T12:03:10.071Z,8.00
2024-02-29T12:05:40.158Z,7.90
2024-02-29T12:08:10.779Z,5.10
2024-02-29T12:10:41.002Z,7.20
2024-02-29T12:13:10.970Z,6.70
2024-02-29T12:15:41.187Z,4.90
2024-02-29T12:18:12.202Z,6.20
2024-02-29T12:20:42.595Z,8.40
2024-02-29T12:23:16.317Z,7.10
2024-02-29T12:25:48.562Z,5.80
2024-02-29T12:28:19.765Z,4.70
2024-02-29T12:30:50.133Z,6.50
2024-02-29T12:33:22.914Z,7.10
2024-02-29T12:35:54.207Z,5.80
2024-02-29T12:38:27.634Z,5.40
2024-02-29T12:40:57.687Z,6.60
2024-02-29T12:43:27.621Z,5.30
2024-02-29T12:45:58.225Z,6.50
2024-02-29T12:48:28.075Z,5.20
2024-02-29T12:50:57.877Z,4.90
2024-02-29T12:53:27.660Z,5.40
2024-02-29T12:55:57.419Z,5.40
2024-02-29T12:58:27.222Z,4.40
2024-02-29T13:00:57.093Z,8.00
2024-02-29T13:03:27.352Z,6.10
2024-02-29T13:05:57.203Z,5.70
2024-02-29T13:08:27.080Z,5.80
2024-02-29T13:10:56.807Z,8.60
2024-02-29T13:13:26.586Z,4.80
2024-02-29T13:15:59.186Z,6.20
2024-02-29T13:18:29.009Z,5.50
2024-02-29T13:20:59.422Z,5.00
2024-02-29T13:23:29.939Z,6.30
2024-02-29T13:26:00.196Z,5.00
2024-02-29T13:28:30.171Z,4.80
2024-02-29T13:31:00.014Z,6.40
2024-02-29T13:33:32.400Z,3.80
2024-02-29T13:36:02.315Z,4.70
2024-02-29T13:38:32.210Z,5.90
2024-02-29T13:41:02.011Z,5.00
2024-02-29T13:43:31.937Z,5.00
2024-02-29T13:46:01.635Z,5.50
2024-02-29T13:48:31.394Z,5.40
2024-02-29T13:51:01.135Z,5.50
2024-02-29T13:53:30.846Z,5.40
2024-02-29T13:56:04.280Z,4.30
2024-02-29T13:58:34.084Z,4.90
2024-02-29T14:01:05.923Z,5.30
2024-02-29T14:03:39.057Z,4.60
2024-02-29T14:06:09.557Z,5.40
2024-02-29T14:08:39.378Z,4.50
2024-02-29T14:11:10.117Z,5.60
2024-02-29T14:13:40.721Z,4.40
2024-02-29T14:16:11.723Z,5.30
2024-02-29T14:18:41.491Z,5.90
2024-02-29T14:21:11.362Z,5.00
2024-02-29T14:23:41.163Z,4.20
2024-02-29T14:26:11.974Z,4.30
2024-02-29T14:28:44.214Z,5.20
2024-02-29T14:31:14.845Z,4.40
2024-02-29T14:33:44.630Z,5.70
2024-02-29T14:36:14.651Z,4.70
2024-02-29T14:38:46.857Z,4.80
2024-02-29T14:41:16.683Z,3.60
2024-02-29T14:43:48.852Z,6.50
2024-02-29T14:46:18.797Z,4.00
2024-02-29T14:48:48.557Z,3.90
2024-02-29T14:51:18.376Z,6.60
2024-02-29T14:53:51.588Z,5.10
2024-02-29T14:56:21.681Z,4.10
2024-02-29T14:58:51.861Z,4.80
2024-02-29T15:01:24.257Z,4.50
2024-02-29T15:03:54.174Z,6.70
2024-02-29T15:06:24.806Z,4.00
2024-02-29T15:08:54.818Z,4.80
2024-02-29T15:11:27.800Z,4.20
2024-02-29T15:14:00.268Z,3.70
2024-02-29T15:16:30.421Z,4.00
2024-02-29T15:19:00.218Z,5.70
2024-02-29T15:21:30.954Z,4.00
2024-02-29T15:24:05.494Z,4.30
2024-02-29T15:29:09.876Z,4.70
2024-02-29T15:31:41.249Z,4.00
2024-02-29T15:34:11.225Z,3.70
2024-02-29T15:36:41.002Z,4.60
2024-02-29T15:39:10.695Z,4.70
2024-02-29T15:41:40.482Z,4.10
2024-02-29T15:44:10.168Z,4.10
2024-02-29T15:46:40.410Z,5.40
2024-02-29T15:49:12.604Z,3.80
2024-02-29T15:51:42.422Z,3.60
2024-02-29T15:54:12.114Z,3.50
2024-02-29T15:56:41.913Z,4.10
2024-02-29T15:59:15.059Z,3.60
2024-02-29T16:01:45.057Z,4.00
2024-02-29T16:04:14.825Z,3.90
2024-02-29T16:06:48.215Z,4.00
2024-02-29T16:09:18.003Z,4.30
2024-02-29T16:11:47.840Z,5.20
2024-02-29T16:14:17.744Z,4.10
2024-02-29T16:16:49.142Z,4.50
2024-02-29T16:19:21.540Z,3.70
2024-02-29T16:21:53.823Z,4.50
2024-02-29T16:24:23.780Z,3.50
2024-02-29T16:26:53.679Z,4.00
2024-02-29T16:29:23.622Z,5.00
2024-02-29T16:31:53.360Z,5.10
2024-02-29T16:34:23.578Z,3.90
2024-02-29T16:36:53.381Z,4.30
2024-02-29T16:39:25.615Z,4.40
2024-02-29T16:41:55.473Z,3.30
2024-02-29T16:44:27.779Z,4.30
2024-02-29T16:46:57.608Z,4.90
2024-02-29T16:49:27.598Z,3.50
2024-02-29T16:51:58.652Z,4.60
2024-02-29T16:54:28.561Z,4.70
2024-02-29T16:57:00.680Z,4.70
2024-02-29T16:59:30.761Z,5.90
2024-02-29T17:02:00.756Z,5.50
2024-02-29T17:04:34.460Z,5.10
2024-02-29T17:07:05.871Z,4.30
2024-02-29T17:09:38.024Z,5.20
2024-02-29T17:12:12.969Z,5.40
2024-02-29T17:14:42.759Z,6.00
2024-02-29T17:17:12.472Z,4.70
2024-02-29T17:19:42.764Z,5.70
2024-02-29T17:22:12.626Z,4.20
2024-02-29T17:24:43.076Z,4.70
2024-02-29T17:27:12.794Z,4.40
2024-02-29T17:29:48.167Z,3.80
2024-02-29T17:32:17.885Z,6.10
2024-02-29T17:34:49.023Z,4.70
2024-02-29T17:37:21.932Z,5.30
2024-02-29T17:39:52.771Z,7.50
2024-02-29T17:42:22.512Z,6.70
2024-02-29T17:44:52.274Z,5.80
2024-02-29T17:47:22.085Z,4.70
2024-02-29T17:49:54.337Z,5.00
2024-02-29T17:52:24.118Z,5.40
2024-02-29T17:54:55.344Z,4.60
2024-02-29T17:57:27.282Z,5.00
2024-02-29T17:59:57.319Z,5.80
2024-02-29T18:02:28.282Z,6.40
2024-02-29T18:05:00.042Z,5.20
2024-02-29T18:07:32.288Z,5.40
2024-02-29T18:10:02.988Z,5.20
2024-02-29T18:12:34.049Z,4.80
2024-02-29T18:15:04.125Z,6.50
2024-02-29T18:17:33.908Z,5.00
2024-02-29T18:20:07.473Z,6.60
2024-02-29T18:22:37.195Z,5.80
2024-02-29T18:25:08.326Z,5.10
2024-02-29T18:27:39.301Z,6.30
2024-02-29T18:30:11.272Z,6.00
2024-02-29T18:32:41.033Z,5.50
2024-02-29T18:35:11.663Z,5.80
2024-02-29T18:37:43.775Z,6.70
2024-02-29T18:40:16.228Z,4.90
2024-02-29T18:42:46.210Z,7.00
2024-02-29T18:45:19.392Z,8.10
2024-02-29T18:47:52.365Z,6.80
2024-02-29T18:50:23.091Z,6.60
2024-02-29T18:52:52.765Z,6.30
2024-02-29T18:55:24.471Z,5.10
2024-02-29T18:57:54.519Z,5.30
2024-02-29T19:00:25.312Z,4.50
2024-02-29T19:02:57.806Z,4.10
2024-02-29T19:05:27.592Z,6.10
2024-02-29T19:07:57.368Z,4.20
2024-02-29T19:10:27.118Z,5.00
2024-02-29T19:12:56.916Z,5.10
2024-02-29T19:15:26.821Z,4.40
2024-02-29T19:17:56.573Z,4.20
2024-02-29T19:20:26.294Z,3.70
2024-02-29T19:22:58.659Z,4.10
2024-02-29T19:25:28.342Z,4.00
2024-02-29T19:27:59.020Z,4.10
2024-02-29T19:30:28.776Z,3.50
2024-02-29T19:32:58.507Z,4.40
2024-02-29T19:35:32.236Z,3.30
2024-02-29T19:38:02.012Z,4.50
2024-02-29T19:40:31.770Z,4.00
2024-02-29T19:43:04.108Z,4.90
2024-02-29T19:45:36.002Z,3.30
2024-02-29T19:48:06.895Z,3.50
2024-02-29T19:50:36.662Z,3.40
2024-02-29T19:53:06.488Z,3.30
2024-02-29T19:55:38.221Z,2.90
2024-02-29T19:58:07.995Z,4.60
2024-02-29T20:00:37.787Z,3.10
2024-02-29T20:03:08.250Z,3.40
2024-02-29T20:05:38.798Z,3.60
2024-02-29T20:08:11.094Z,5.30
2024-02-29T20:10:43.322Z,3.60
2024-02-29T20:13:13.215Z,4.10
2024-02-29T20:15:42.974Z,4.00
2024-02-29T20:18:12.836Z,3.70
2024-02-29T20:20:45.082Z,3.20
2024-02-29T20:23:14.934Z,3.00
2024-02-29T20:25:44.909Z,3.20
2024-02-29T20:28:14.765Z,3.10
2024-02-29T20:30:44.456Z,3.40
2024-02-29T20:33:17.579Z,4.00
2024-02-29T20:35:47.343Z,3.50
2024-02-29T20:38:16.993Z,2.90
2024-02-29T20:40:46.748Z,3.20
2024-02-29T20:43:16.517Z,3.00
2024-02-29T20:45:46.743Z,3.00
2024-02-29T20:48:17.305Z,4.00
2024-02-29T20:50:47.089Z,2.70
2024-02-29T20:53:17.397Z,2.70
2024-02-29T20:55:47.167Z,2.70
2024-02-29T20:58:17.001Z,3.70
2024-02-29T21:00:46.918Z,3.70
2024-02-29T21:03:16.707Z,3.90
2024-02-29T21:05:47.101Z,2.70
2024-02-29T21:08:19.645Z,3.60
2024-02-29T21:10:52.109Z,2.80
2024-02-29T21:13:21.994Z,2.70
2024-02-29T21:15:54.886Z,2.50
2024-02-29T21:18:24.773Z,2.80
2024-02-29T21:20:57.678Z,3.50
2024-02-29T21:23:27.486Z,2.60
2024-02-29T21:25:57.569Z,4.00
2024-02-29T21:28:27.476Z,3.80
2024-02-29T21:30:57.435Z,3.50
2024-02-29T21:33:27.204Z,3.30
2024-02-29T21:35:59.518Z,3.80
2024-02-29T21:38:29.248Z,2.80
2024-02-29T21:40:59.119Z,3.10
2024-02-29T21:43:28.966Z,2.60
2024-02-29T21:45:58.756Z,3.50
2024-02-29T21:48:30.844Z,3.40
2024-02-29T21:51:01.425Z,3.00
2024-02-29T21:53:31.201Z,3.40
2024-02-29T21:56:00.908Z,3.20
2024-02-29T21:58:33.112Z,4.10
2024-02-29T22:01:02.902Z,3.10
2024-02-29T22:03:32.694Z,3.20
2024-02-29T22:06:02.451Z,4.50
2024-02-29T22:08:32.308Z,3.90
2024-02-29T22:11:02.185Z,3.70
2024-02-29T22:13:34.739Z,3.40
2024-02-29T22:16:04.936Z,3.30
2024-02-29T22:18:36.031Z,4.00
2024-02-29T22:21:06.169Z,4.10
2024-02-29T22:23:35.997Z,3.10
2024-02-29T22:26:06.009Z,3.20
2024-02-29T22:28:35.993Z,3.30
2024-02-29T22:31:06.231Z,3.40
2024-02-29T22:33:36.032Z,3.60
2024-02-29T22:36:06.566Z,4.00
2024-02-29T22:38:36.395Z,3.90
2024-02-29T22:41:06.503Z,3.40
2024-02-29T22:43:36.686Z,2.90
2024-02-29T22:46:06.663Z,3.70
2024-02-29T22:48:36.603Z,3.50
2024-02-29T22:51:06.813Z,3.90
2024-02-29T22:53:37.501Z,3.50
2024-02-29T22:56:08.020Z,5.60
2024-02-29T22:58:37.833Z,2.90
2024-02-29T23:01:07.909Z,2.90
2024-02-29T23:03:37.785Z,3.60
2024-02-29T23:06:07.828Z,3.20
2024-02-29T23:08:37.531Z,3.80
2024-02-29T23:11:07.484Z,3.40
2024-02-29T23:13:37.388Z,3.80
2024-02-29T23:16:07.461Z,2.80
2024-02-29T23:18:37.157Z,2.70
2024-02-29T23:21:08.575Z,3.70
2024-02-29T23:23:38.258Z,5.40
2024-02-29T23:26:08.557Z,3.00
2024-02-29T23:28:38.425Z,3.90
2024-02-29T23:31:08.261Z,3.80
2024-02-29T23:33:38.336Z,3.60
2024-02-29T23:36:08.679Z,3.00
2024-02-29T23:38:40.664Z,3.40
2024-02-29T23:41:10.354Z,3.70
2024-02-29T23:43:40.025Z,4.00
2024-02-29T23:46:10.110Z,3.60
2024-02-29T23:48:39.844Z,3.60
2024-02-29T23:51:10.425Z,3.10
2024-02-29T23:53:42.611Z,3.70
2024-02-29T23:56:12.297Z,2.60
2024-02-29T23:58:42.719Z,3.10
